PGRO/ROP METAR and TAF weather

Enter ICAO airport designator
Station Type Date Time Source
PGRO METAR 2020/03/31 06:50 UTC NOAA

PGRO 310650Z 09015KT 7SM SCT014 27/23 A2985


Station Type Date Time Source
PGRO Decoded METAR 2020/03/31 06:50 UTC NOAA

Rota Island, N. Mariana Is, Rota International Airport, GU, United States (PGRO) 14-11N 145-15E
Mar 31, 2020 - 02:50 AM EDT / 2020.03.31 0650 UTC
Wind: from the E (090 degrees) at 17 MPH (15 KT):0
Visibility: 7 mile(s):0
Sky conditions: partly cloudy
Temperature: 80 F (27 C)
Dew Point: 73 F (23 C)
Relative Humidity: 78%
Pressure (altimeter): 29.85 in. Hg (1010 hPa)
ob: PGRO 310650Z 09015KT 7SM SCT014 27/23 A2985
cycle: 7

Station Type Date Time Source
PGRO TAF 2020/03/31 06:27 UTC NOAA

TAF PGRO 310525Z 3106/0106 08013G23KT P6SM VCSH SCT018 SCT050
FM310800 08011KT P6SM FEW025 SCT060

Example: see airport list